createdAt,value
2023-04-09T00:00:18.153Z,67.93
2023-04-09T00:02:46.265Z,68.45
2023-04-09T00:05:22.601Z,68.54
2023-04-09T00:07:53.470Z,68.75
2023-04-09T00:10:24.545Z,70.69
2023-04-09T00:12:58.015Z,68.99
2023-04-09T00:15:31.648Z,70.24
2023-04-09T00:18:01.660Z,69.47
2023-04-09T00:20:38.961Z,69.43
2023-04-09T00:23:12.948Z,71.24
2023-04-09T00:25:41.299Z,69.37
2023-04-09T00:28:09.332Z,68.93
2023-04-09T00:30:39.288Z,70.18
2023-04-09T00:33:07.484Z,71.13
2023-04-09T00:35:39.074Z,70.74
2023-04-09T00:38:16.852Z,71.14
2023-04-09T00:40:47.411Z,69.64
2023-04-09T00:43:18.049Z,70.58
2023-04-09T00:45:47.934Z,69.61
2023-04-09T00:48:17.359Z,68.42
2023-04-09T00:50:45.568Z,68.03
2023-04-09T00:53:27.828Z,68.03
2023-04-09T00:55:57.411Z,67.81
2023-04-09T00:58:25.312Z,69.18
2023-04-09T01:00:55.494Z,69.37
2023-04-09T01:03:27.485Z,71.16
2023-04-09T01:06:04.730Z,70.43
2023-04-09T01:08:45.865Z,70.84
2023-04-09T01:11:22.888Z,68.83
2023-04-09T01:14:02.696Z,67.34
2023-04-09T01:16:34.058Z,67.00
2023-04-09T01:19:08.263Z,67.70
2023-04-09T01:21:37.854Z,67.50
2023-04-09T01:24:17.868Z,68.26
2023-04-09T01:26:57.258Z,69.42
2023-04-09T01:29:27.900Z,69.98
2023-04-09T01:31:56.679Z,70.35
2023-04-09T01:34:24.879Z,71.43
2023-04-09T01:36:55.183Z,70.16
2023-04-09T01:39:23.125Z,71.45
2023-04-09T01:41:52.013Z,70.51
2023-04-09T01:44:20.745Z,70.65
2023-04-09T01:46:51.073Z,70.21
2023-04-09T01:49:23.596Z,71.50
2023-04-09T01:51:51.939Z,70.27
2023-04-09T01:54:25.781Z,69.60
2023-04-09T01:56:56.643Z,68.30
2023-04-09T01:59:33.525Z,68.37
2023-04-09T02:02:10.396Z,69.09
2023-04-09T02:04:42.603Z,68.80
2023-04-09T02:07:13.723Z,68.57
2023-04-09T02:09:42.632Z,68.31
2023-04-09T02:12:14.465Z,68.99
2023-04-09T02:14:43.835Z,69.19
2023-04-09T02:17:15.716Z,68.78
2023-04-09T02:19:46.973Z,69.24
2023-04-09T02:22:16.362Z,68.46
2023-04-09T02:24:47.419Z,68.65
2023-04-09T02:27:15.315Z,68.02
2023-04-09T02:29:44.088Z,67.84
2023-04-09T02:32:16.369Z,66.97
2023-04-09T02:34:44.401Z,67.48
2023-04-09T02:37:12.347Z,67.37
2023-04-09T02:39:40.459Z,67.84
2023-04-09T02:42:08.857Z,68.09
2023-04-09T02:44:41.631Z,68.83
2023-04-09T02:47:11.526Z,69.45
2023-04-09T02:49:41.382Z,70.30
2023-04-09T02:52:13.601Z,70.29
2023-04-09T02:54:43.804Z,68.80
2023-04-09T02:57:11.786Z,69.06
2023-04-09T02:59:40.813Z,69.26
2023-04-09T03:02:14.929Z,68.73
2023-04-09T03:04:44.413Z,68.90
2023-04-09T03:07:20.411Z,69.52
2023-04-09T03:09:50.106Z,69.35
2023-04-09T03:12:18.137Z,68.79
2023-04-09T03:14:47.079Z,67.70
2023-04-09T03:17:16.368Z,68.15
2023-04-09T03:19:46.189Z,68.38
2023-04-09T03:22:14.223Z,68.40
2023-04-09T03:24:44.626Z,68.48
2023-04-09T03:27:13.877Z,68.39
2023-04-09T03:29:42.092Z,69.71
2023-04-09T03:32:11.452Z,69.28
2023-04-09T03:34:39.412Z,68.98
2023-04-09T03:37:13.720Z,68.78
2023-04-09T03:39:42.758Z,69.13
2023-04-09T03:42:11.011Z,69.82
2023-04-09T03:44:40.882Z,70.76
2023-04-09T03:47:09.161Z,69.94
2023-04-09T03:49:37.302Z,70.45
2023-04-09T03:52:05.204Z,73.30
2023-04-09T03:54:34.515Z,71.45
2023-04-09T03:57:06.271Z,71.57
2023-04-09T03:59:34.436Z,71.81
2023-04-09T04:02:05.115Z,71.95
2023-04-09T04:04:33.179Z,71.53
2023-04-09T04:07:01.575Z,73.25
2023-04-09T04:09:29.596Z,73.01
2023-04-09T04:11:59.325Z,72.59
2023-04-09T04:14:33.304Z,72.40
2023-04-09T04:17:04.074Z,70.87
2023-04-09T04:19:35.012Z,71.79
2023-04-09T04:22:11.072Z,71.89
2023-04-09T04:24:42.597Z,71.04
2023-04-09T04:27:14.908Z,71.40
2023-04-09T04:29:48.198Z,71.81
2023-04-09T04:32:16.280Z,70.75
2023-04-09T04:34:44.142Z,69.96
2023-04-09T04:37:17.352Z,69.53
2023-04-09T04:39:45.212Z,69.67
2023-04-09T04:42:15.778Z,70.33
2023-04-09T04:44:43.708Z,71.60
2023-04-09T04:47:13.771Z,70.44
2023-04-09T04:49:47.870Z,69.97
2023-04-09T04:52:17.710Z,70.00
2023-04-09T04:54:50.450Z,70.03
2023-04-09T04:57:21.460Z,69.72
2023-04-09T04:59:49.578Z,70.51
2023-04-09T05:02:20.021Z,71.98
2023-04-09T05:04:48.026Z,71.10
2023-04-09T05:07:16.065Z,72.57
2023-04-09T05:09:44.651Z,71.17
2023-04-09T05:12:12.676Z,71.61
2023-04-09T05:14:42.087Z,71.43
2023-04-09T05:17:31.094Z,70.70
2023-04-09T05:20:01.182Z,69.79
2023-04-09T05:22:31.568Z,71.73
2023-04-09T05:25:03.706Z,72.20
2023-04-09T05:27:31.696Z,72.58
2023-04-09T05:30:01.388Z,71.01
2023-04-09T05:32:32.135Z,70.42
2023-04-09T05:35:00.436Z,71.13
2023-04-09T05:37:31.353Z,71.50
2023-04-09T05:40:00.614Z,72.32
2023-04-09T05:42:28.512Z,70.42
2023-04-09T05:44:56.685Z,70.32
2023-04-09T05:47:26.433Z,71.08
2023-04-09T05:49:59.526Z,71.23
2023-04-09T05:52:28.597Z,69.72
2023-04-09T05:54:56.615Z,69.39
2023-04-09T05:57:24.372Z,69.79
2023-04-09T05:59:52.257Z,70.81
2023-04-09T06:02:20.343Z,70.63
2023-04-09T06:04:53.835Z,70.98
2023-04-09T06:07:21.961Z,69.46
2023-04-09T06:09:49.893Z,69.78
2023-04-09T06:12:20.667Z,70.10
2023-04-09T06:14:49.468Z,71.21
2023-04-09T06:17:34.052Z,71.84
2023-04-09T06:20:06.718Z,72.61
2023-04-09T06:22:35.173Z,72.43
2023-04-09T06:25:04.346Z,73.30
2023-04-09T06:27:32.746Z,72.34
2023-04-09T06:30:03.719Z,72.76
2023-04-09T06:32:40.328Z,72.68
2023-04-09T06:35:19.488Z,72.97
2023-04-09T06:37:47.576Z,72.81
2023-04-09T06:40:25.102Z,72.64
2023-04-09T06:42:53.154Z,71.68
2023-04-09T06:45:23.905Z,71.22
2023-04-09T06:47:52.512Z,71.81
2023-04-09T06:50:23.866Z,72.41
2023-04-09T06:52:53.197Z,72.86
2023-04-09T06:55:23.974Z,72.99
2023-04-09T06:57:53.942Z,72.83
2023-04-09T07:00:24.004Z,73.80
2023-04-09T07:02:53.523Z,73.81
2023-04-09T07:05:23.120Z,74.88
2023-04-09T07:07:52.092Z,74.75
2023-04-09T07:10:20.256Z,74.30
2023-04-09T07:12:48.049Z,74.29
2023-04-09T07:15:17.588Z,73.85
2023-04-09T07:17:45.594Z,73.50
2023-04-09T07:20:15.621Z,72.28
2023-04-09T07:22:48.058Z,71.75
2023-04-09T07:25:18.106Z,70.64
2023-04-09T07:27:51.283Z,69.40
2023-04-09T07:30:24.415Z,69.83
2023-04-09T07:32:52.761Z,69.41
2023-04-09T07:35:21.016Z,68.69
2023-04-09T07:37:52.952Z,68.36
2023-04-09T07:40:37.054Z,68.45
2023-04-09T07:43:07.049Z,67.71
2023-04-09T07:45:36.549Z,67.88
2023-04-09T07:48:10.375Z,67.58
2023-04-09T07:50:41.746Z,67.33
2023-04-09T07:53:12.577Z,66.82
2023-04-09T07:55:41.293Z,65.97
2023-04-09T07:58:09.262Z,65.62
2023-04-09T08:00:37.229Z,66.26
2023-04-09T08:03:05.886Z,67.23
2023-04-09T08:05:38.568Z,67.17
2023-04-09T08:08:06.874Z,65.90
2023-04-09T08:10:36.231Z,64.99
2023-04-09T08:13:11.913Z,63.06
2023-04-09T08:15:42.264Z,61.99
2023-04-09T08:18:10.266Z,63.58
2023-04-09T08:20:45.519Z,62.55
2023-04-09T08:23:13.623Z,64.89
2023-04-09T08:25:43.995Z,67.07
2023-04-09T08:28:12.131Z,67.92
2023-04-09T08:30:43.428Z,67.80
2023-04-09T08:33:11.597Z,67.99
2023-04-09T08:35:41.445Z,67.25
2023-04-09T08:38:12.461Z,67.17
2023-04-09T08:40:40.474Z,66.22
2023-04-09T08:43:10.897Z,65.01
2023-04-09T08:45:42.367Z,63.41
2023-04-09T08:48:15.033Z,60.99
2023-04-09T08:50:48.575Z,62.87
2023-04-09T08:53:19.164Z,61.53
2023-04-09T08:55:47.838Z,59.98
2023-04-09T08:58:22.275Z,57.29
2023-04-09T09:00:55.016Z,55.85
2023-04-09T09:03:25.632Z,58.08
2023-04-09T09:05:54.209Z,57.93
2023-04-09T09:08:27.530Z,58.49
2023-04-09T09:10:57.413Z,58.60
2023-04-09T09:13:27.737Z,57.76
2023-04-09T09:16:17.467Z,56.77
2023-04-09T09:18:46.480Z,56.59
2023-04-09T09:21:15.855Z,56.05
2023-04-09T09:23:48.416Z,55.91
2023-04-09T09:29:05.943Z,54.96
2023-04-09T09:31:51.354Z,56.06
2023-04-09T09:34:20.107Z,56.27
2023-04-09T09:36:53.269Z,56.61
2023-04-09T09:39:22.209Z,56.17
2023-04-09T09:42:10.763Z,56.92
2023-04-09T09:44:43.927Z,55.74
2023-04-09T09:47:13.983Z,57.06
2023-04-09T09:49:47.450Z,56.29
2023-04-09T09:52:15.560Z,55.79
2023-04-09T09:54:49.604Z,54.62
2023-04-09T09:57:22.266Z,55.17
2023-04-09T09:59:56.299Z,53.60
2023-04-09T10:02:27.253Z,54.27
2023-04-09T10:04:57.913Z,54.10
2023-04-09T10:07:29.162Z,53.39
2023-04-09T10:09:57.947Z,53.74
2023-04-09T10:12:29.505Z,52.89
2023-04-09T10:15:00.996Z,51.66
2023-04-09T10:17:36.787Z,50.94
2023-04-09T10:20:18.625Z,53.27
2023-04-09T10:22:50.315Z,52.41
2023-04-09T10:25:21.101Z,53.17
2023-04-09T10:28:00.979Z,52.29
2023-04-09T10:30:37.337Z,52.49
2023-04-09T10:33:15.514Z,52.12
2023-04-09T10:35:49.002Z,53.23
2023-04-09T10:38:16.973Z,52.76
2023-04-09T10:40:49.476Z,52.65
2023-04-09T10:43:21.132Z,51.66
2023-04-09T10:45:53.790Z,50.87
2023-04-09T10:48:39.794Z,48.93
2023-04-09T10:51:07.951Z,49.64
2023-04-09T10:53:35.892Z,45.36
2023-04-09T10:56:16.659Z,45.39
2023-04-09T10:58:47.603Z,46.84
2023-04-09T11:01:24.829Z,47.14
2023-04-09T11:04:10.821Z,46.67
2023-04-09T11:06:41.116Z,45.54
2023-04-09T11:09:12.163Z,46.51
2023-04-09T11:11:40.802Z,46.12
2023-04-09T11:14:11.295Z,46.88
2023-04-09T11:16:40.904Z,45.37
2023-04-09T11:19:12.104Z,46.14
2023-04-09T11:21:46.311Z,47.18
2023-04-09T11:24:17.176Z,46.15
2023-04-09T11:26:46.964Z,45.63
2023-04-09T11:29:17.232Z,45.21
2023-04-09T11:31:54.861Z,45.91
2023-04-09T11:34:22.875Z,46.81
2023-04-09T11:36:55.962Z,45.91
2023-04-09T11:39:43.815Z,45.54
2023-04-09T11:42:17.054Z,45.93
2023-04-09T11:44:46.857Z,45.20
2023-04-09T11:47:17.266Z,44.09
2023-04-09T11:49:46.847Z,44.31
2023-04-09T11:52:16.407Z,45.78
2023-04-09T11:54:44.907Z,46.33
2023-04-09T11:57:13.302Z,47.63
2023-04-09T11:59:41.298Z,44.38
2023-04-09T12:02:10.207Z,43.53
2023-04-09T12:04:42.706Z,42.27
2023-04-09T12:07:11.167Z,45.54
2023-04-09T12:09:49.019Z,44.00
2023-04-09T12:12:22.584Z,43.18
2023-04-09T12:14:52.306Z,42.85
2023-04-09T12:17:22.290Z,43.84
2023-04-09T12:19:54.693Z,41.82
2023-04-09T12:22:25.002Z,42.58
2023-04-09T12:24:55.498Z,43.09
2023-04-09T12:27:24.584Z,44.30
2023-04-09T12:29:54.884Z,45.10
2023-04-09T12:32:22.824Z,43.33
2023-04-09T12:34:52.151Z,42.21
2023-04-09T12:37:20.309Z,43.63
2023-04-09T12:39:49.317Z,45.21
2023-04-09T12:42:18.733Z,44.71
2023-04-09T12:44:46.496Z,43.50
2023-04-09T12:47:14.388Z,43.32
2023-04-09T12:49:50.115Z,41.92
2023-04-09T12:52:22.698Z,40.89
2023-04-09T12:54:59.901Z,42.23
2023-04-09T12:57:31.363Z,43.14
2023-04-09T12:59:59.415Z,43.91
2023-04-09T13:02:30.434Z,44.69
2023-04-09T13:04:59.133Z,45.98
2023-04-09T13:07:31.594Z,45.49
2023-04-09T13:09:59.770Z,46.25
2023-04-09T13:12:28.121Z,46.65
2023-04-09T13:14:59.454Z,46.08
2023-04-09T13:17:27.319Z,47.28
2023-04-09T13:19:55.222Z,46.77
2023-04-09T13:22:28.669Z,46.44
2023-04-09T13:24:57.926Z,46.61
2023-04-09T13:27:27.153Z,46.23
2023-04-09T13:29:59.328Z,47.34
2023-04-09T13:32:30.169Z,47.14
2023-04-09T13:35:00.176Z,46.61
2023-04-09T13:37:29.379Z,46.67
2023-04-09T13:40:01.702Z,45.23
2023-04-09T13:42:31.611Z,45.61
2023-04-09T13:45:02.318Z,44.50
2023-04-09T13:47:30.737Z,43.97
2023-04-09T13:50:01.901Z,45.21
2023-04-09T13:52:30.564Z,45.47
2023-04-09T13:55:03.793Z,45.71
2023-04-09T13:57:36.632Z,45.65
2023-04-09T14:00:05.918Z,45.65
2023-04-09T14:02:36.092Z,45.67
2023-04-09T14:05:04.834Z,46.12
2023-04-09T14:07:33.983Z,46.19
2023-04-09T14:10:03.490Z,47.52
2023-04-09T14:12:31.614Z,45.40
2023-04-09T14:15:02.516Z,44.33
2023-04-09T14:17:32.300Z,45.86
2023-04-09T14:20:04.009Z,43.18
2023-04-09T14:22:33.336Z,44.84
2023-04-09T14:25:11.668Z,44.26
2023-04-09T14:27:41.218Z,44.54
2023-04-09T14:30:13.961Z,44.24
2023-04-09T14:32:54.417Z,44.09
2023-04-09T14:35:24.770Z,42.05
2023-04-09T14:37:55.165Z,43.43
2023-04-09T14:40:26.051Z,44.29
2023-04-09T14:42:58.006Z,44.73
2023-04-09T14:45:31.133Z,43.94
2023-04-09T14:47:59.154Z,44.26
2023-04-09T14:50:27.288Z,43.25
2023-04-09T14:52:55.428Z,42.06
2023-04-09T14:55:28.308Z,42.90
2023-04-09T14:58:00.596Z,42.03
2023-04-09T15:00:29.391Z,41.54
2023-04-09T15:03:05.471Z,39.27
2023-04-09T15:05:36.597Z,39.17
2023-04-09T15:08:07.267Z,40.02
2023-04-09T15:10:37.445Z,40.98
2023-04-09T15:13:10.312Z,42.68
2023-04-09T15:15:41.683Z,40.51
2023-04-09T15:18:11.948Z,40.08
2023-04-09T15:20:40.501Z,41.65
2023-04-09T15:23:09.478Z,40.83
2023-04-09T15:25:40.690Z,43.20
2023-04-09T15:28:09.986Z,42.31
2023-04-09T15:30:41.813Z,43.06
2023-04-09T15:33:09.638Z,42.05
2023-04-09T15:35:39.801Z,40.72
2023-04-09T15:38:33.752Z,41.18
2023-04-09T15:41:07.124Z,40.61
2023-04-09T15:43:36.200Z,41.81
2023-04-09T15:46:10.795Z,42.28
2023-04-09T15:48:42.061Z,42.45
2023-04-09T15:51:12.829Z,42.35
2023-04-09T15:53:48.217Z,42.75
2023-04-09T15:56:17.765Z,42.25
2023-04-09T15:58:47.921Z,42.85
2023-04-09T16:01:19.469Z,43.66
2023-04-09T16:03:51.990Z,42.34
2023-04-09T16:06:21.216Z,42.06
2023-04-09T16:08:49.076Z,40.86
2023-04-09T16:11:20.198Z,41.65
2023-04-09T16:13:49.310Z,42.39
2023-04-09T16:16:20.830Z,42.58
2023-04-09T16:18:48.848Z,42.71
2023-04-09T16:21:21.852Z,43.01
2023-04-09T16:23:52.404Z,43.93
2023-04-09T16:26:23.602Z,42.42
2023-04-09T16:28:56.035Z,43.07
2023-04-09T16:31:24.153Z,43.49
2023-04-09T16:33:55.463Z,43.55
2023-04-09T16:36:33.666Z,43.21
2023-04-09T16:39:04.417Z,43.89
2023-04-09T16:41:37.071Z,43.90
2023-04-09T16:44:13.416Z,44.50
2023-04-09T16:46:41.436Z,43.97
2023-04-09T16:49:10.150Z,44.08
2023-04-09T16:51:41.460Z,44.84
2023-04-09T16:54:09.438Z,44.67
2023-04-09T16:56:37.226Z,44.45
2023-04-09T16:59:08.009Z,44.17
2023-04-09T17:01:40.080Z,44.60
2023-04-09T17:04:08.453Z,44.50
2023-04-09T17:06:36.528Z,44.76
2023-04-09T17:09:07.604Z,45.82
2023-04-09T17:11:38.341Z,46.48
2023-04-09T17:14:08.083Z,45.83
2023-04-09T17:16:36.325Z,46.50
2023-04-09T17:19:04.313Z,45.58
2023-04-09T17:21:32.766Z,46.33
2023-04-09T17:24:02.271Z,45.14
2023-04-09T17:26:34.072Z,44.94
2023-04-09T17:29:03.455Z,45.43
2023-04-09T17:31:34.374Z,46.10
2023-04-09T17:34:02.258Z,46.42
2023-04-09T17:36:31.576Z,46.59
2023-04-09T17:39:02.794Z,46.12
2023-04-09T17:41:31.725Z,46.99
2023-04-09T17:44:00.319Z,46.28
2023-04-09T17:46:28.910Z,46.63
2023-04-09T17:49:00.049Z,45.87
2023-04-09T17:51:30.657Z,45.96
2023-04-09T17:53:58.500Z,46.46
2023-04-09T17:56:31.525Z,46.15
2023-04-09T17:58:59.348Z,45.83
2023-04-09T18:01:31.294Z,45.91
2023-04-09T18:04:01.637Z,45.90
2023-04-09T18:06:32.743Z,45.93
2023-04-09T18:09:02.354Z,45.80
2023-04-09T18:11:30.216Z,45.87
2023-04-09T18:13:58.467Z,45.67
2023-04-09T18:16:29.088Z,45.33
2023-04-09T18:18:56.992Z,46.04
2023-04-09T18:21:27.580Z,45.31
2023-04-09T18:23:56.106Z,46.36
2023-04-09T18:26:26.155Z,46.26
2023-04-09T18:29:02.331Z,45.77
2023-04-09T18:31:30.220Z,46.04
2023-04-09T18:34:05.060Z,45.19
2023-04-09T18:36:38.275Z,45.81
2023-04-09T18:39:06.585Z,46.29
2023-04-09T18:41:40.720Z,46.26
2023-04-09T18:44:08.584Z,46.31
2023-04-09T18:46:43.862Z,46.16
2023-04-09T18:49:11.935Z,46.86
2023-04-09T18:51:41.599Z,47.04
2023-04-09T18:54:14.583Z,47.57
2023-04-09T18:56:49.686Z,48.25
2023-04-09T18:59:19.606Z,47.88
2023-04-09T19:01:47.704Z,48.24
2023-04-09T19:04:18.239Z,48.69
2023-04-09T19:06:49.552Z,48.54
2023-04-09T19:09:17.714Z,48.76
2023-04-09T19:11:45.692Z,48.49
2023-04-09T19:14:22.213Z,49.38
2023-04-09T19:16:50.016Z,50.41
2023-04-09T19:19:18.084Z,50.25
2023-04-09T19:21:48.936Z,50.74
2023-04-09T19:24:16.981Z,49.89
2023-04-09T19:26:49.008Z,51.39
2023-04-09T19:29:19.475Z,51.15
2023-04-09T19:31:47.544Z,51.28
2023-04-09T19:34:18.332Z,51.09
2023-04-09T19:36:47.630Z,50.83
2023-04-09T19:39:23.409Z,51.01
2023-04-09T19:41:55.439Z,51.85
2023-04-09T19:44:24.112Z,51.80
2023-04-09T19:46:52.655Z,51.03
2023-04-09T19:49:25.590Z,50.74
2023-04-09T19:51:57.826Z,52.15
2023-04-09T19:54:26.077Z,51.61
2023-04-09T19:57:01.763Z,51.96
2023-04-09T19:59:29.818Z,51.53
2023-04-09T20:02:00.263Z,51.67
2023-04-09T20:04:31.056Z,51.57
2023-04-09T20:07:00.639Z,51.66
2023-04-09T20:09:29.211Z,52.34
2023-04-09T20:11:58.410Z,52.01
2023-04-09T20:14:29.504Z,51.55
2023-04-09T20:16:58.607Z,51.92
2023-04-09T20:19:33.605Z,51.18
2023-04-09T20:22:03.560Z,51.85
2023-04-09T20:24:32.322Z,52.62
2023-04-09T20:27:03.143Z,51.88
2023-04-09T20:29:45.205Z,52.49
2023-04-09T20:32:16.249Z,52.53
2023-04-09T20:34:47.128Z,52.98
2023-04-09T20:37:19.138Z,53.33
2023-04-09T20:39:47.175Z,53.05
2023-04-09T20:42:15.801Z,53.14
2023-04-09T20:44:44.906Z,52.61
2023-04-09T20:47:15.483Z,52.77
2023-04-09T20:49:59.940Z,52.70
2023-04-09T20:52:35.592Z,52.99
2023-04-09T20:55:07.496Z,53.30
2023-04-09T20:57:38.266Z,53.23
2023-04-09T21:00:07.416Z,53.42
2023-04-09T21:02:42.128Z,53.42
2023-04-09T21:05:22.508Z,53.39
2023-04-09T21:07:53.427Z,52.97
2023-04-09T21:10:24.408Z,52.78
2023-04-09T21:12:54.823Z,53.13
2023-04-09T21:15:22.730Z,52.43
2023-04-09T21:17:53.215Z,52.61
2023-04-09T21:20:22.291Z,53.07
2023-04-09T21:22:50.755Z,53.54
2023-04-09T21:25:20.620Z,53.76
2023-04-09T21:27:48.588Z,53.82
2023-04-09T21:30:17.223Z,54.27
2023-04-09T21:32:46.266Z,54.28
2023-04-09T21:35:16.564Z,53.86
2023-04-09T21:37:54.881Z,54.62
2023-04-09T21:40:24.467Z,55.20
2023-04-09T21:42:59.723Z,55.00
2023-04-09T21:45:32.736Z,55.82
2023-04-09T21:48:08.261Z,55.07
2023-04-09T21:53:26.426Z,55.51
2023-04-09T21:56:01.798Z,55.71
2023-04-09T21:58:39.884Z,55.87
2023-04-09T22:01:26.446Z,56.33
2023-04-09T22:04:02.277Z,56.17
2023-04-09T22:06:33.356Z,56.63
2023-04-09T22:09:04.700Z,56.67
2023-04-09T22:11:36.393Z,57.76
2023-04-09T22:14:06.650Z,57.86
2023-04-09T22:16:35.333Z,56.75
2023-04-09T22:19:06.934Z,56.03
2023-04-09T22:21:35.033Z,55.53
2023-04-09T22:24:03.113Z,55.98
2023-04-09T22:26:33.512Z,55.33
2023-04-09T22:29:05.722Z,55.73
2023-04-09T22:31:37.806Z,55.93
2023-04-09T22:34:20.179Z,56.68
2023-04-09T22:36:49.860Z,56.07
2023-04-09T22:39:22.582Z,57.50
2023-04-09T22:41:53.515Z,58.08
2023-04-09T22:44:23.579Z,58.83
2023-04-09T22:46:55.288Z,58.53
2023-04-09T22:49:26.749Z,57.02
2023-04-09T22:51:54.807Z,56.79
2023-04-09T22:54:26.121Z,56.17
2023-04-09T22:56:54.097Z,57.12
2023-04-09T22:59:30.319Z,56.85
2023-04-09T23:02:02.186Z,56.21
2023-04-09T23:04:30.872Z,56.03
2023-04-09T23:07:02.574Z,56.06
2023-04-09T23:09:32.466Z,56.15
2023-04-09T23:12:17.175Z,56.74
2023-04-09T23:14:53.717Z,56.58
2023-04-09T23:17:30.540Z,56.58
2023-04-09T23:19:59.554Z,56.03
2023-04-09T23:22:27.682Z,57.25
2023-04-09T23:24:55.708Z,56.73
2023-04-09T23:27:28.791Z,56.95
2023-04-09T23:30:16.812Z,56.74
2023-04-09T23:32:45.421Z,56.66
2023-04-09T23:35:13.582Z,57.00
2023-04-09T23:37:42.523Z,57.04
2023-04-09T23:40:22.674Z,56.97
2023-04-09T23:42:51.032Z,57.02
2023-04-09T23:45:26.291Z,57.09
2023-04-09T23:47:57.547Z,57.83
2023-04-09T23:50:25.561Z,57.91
2023-04-09T23:52:54.461Z,57.98
2023-04-09T23:55:27.214Z,59.15
2023-04-09T23:57:57.922Z,59.36
